Time;durP1;ratioP1;P1;durP2;ratioP2;P2;SDS_P1;SDS_P2;PMS_P1;PMS_P2;Temp;Humidity;BMP_temperature;BMP_pressure;BME280_temperature;BME280_humidity;BME280_pressure;Samples;Min_cycle;Max_cycle;Signal;HPM_P1;HPM_P2
2023/03/30 00:01:20;;;;;;;;;;;11.30;99.90;;;;;;5035677;28;19925;-79
2023/03/30 00:03:49;;;;;;;;;;;11.40;99.90;;;;;;5054719;28;19920;-80
2023/03/30 00:06:21;;;;;;;;;;;11.40;99.90;;;;;;5054581;28;19928;-79
2023/03/30 00:08:48;;;;;;;;;;;11.50;99.90;;;;;;5054756;28;19935;-79
2023/03/30 00:11:16;;;;;;;;;;;11.50;99.90;;;;;;5054670;28;19920;-78
2023/03/30 00:13:42;;;;;;;;;;;11.70;99.90;;;;;;5053717;28;19920;-79
2023/03/30 00:16:09;;;;;;;;;;;11.60;99.90;;;;;;5054078;28;19927;-78
2023/03/30 00:18:36;;;;;;;;;;;11.70;99.90;;;;;;5054390;28;19924;-79
2023/03/30 00:21:02;;;;;;;;;;;11.80;99.90;;;;;;5055009;28;19921;-81
2023/03/30 00:23:28;;;;;;;;;;;11.80;99.90;;;;;;5055920;28;20352;-80
2023/03/30 00:25:54;;;;;;;;;;;11.80;99.90;;;;;;5054709;28;19920;-80
2023/03/30 00:28:19;;;;;;;;;;;11.80;99.90;;;;;;5037020;28;19988;-80
2023/03/30 00:30:46;;;;;;;;;;;11.80;99.90;;;;;;5040006;28;19970;-79
2023/03/30 00:33:11;;;;;;;;;;;11.70;99.90;;;;;;5059369;28;19924;-80
2023/03/30 00:35:37;;;;;;;;;;;11.70;99.90;;;;;;5040478;28;19971;-80
2023/03/30 00:38:02;;;;;;;;;;;11.60;99.90;;;;;;5041610;28;19921;-80
2023/03/30 00:40:30;;;;;;;;;;;11.60;99.90;;;;;;5053821;28;20292;-80
2023/03/30 00:43:03;;;;;;;;;;;11.60;99.90;;;;;;5016085;28;20000;-81
2023/03/30 00:45:28;;;;;;;;;;;11.70;99.90;;;;;;5015942;28;19921;-81
2023/03/30 00:48:03;;;;;;;;;;;11.70;99.90;;;;;;5033583;28;19921;-80
2023/03/30 00:50:34;;;;;;;;;;;11.80;99.90;;;;;;5038160;28;19989;-80
2023/03/30 00:53:05;;;;;;;;;;;12.10;99.90;;;;;;5053564;28;19960;-81
2023/03/30 00:55:33;;;;;;;;;;;11.80;99.90;;;;;;5053000;28;19928;-81
2023/03/30 00:58:00;;;;;;;;;;;11.90;99.90;;;;;;5035895;28;20352;-80
2023/03/30 01:00:28;;;;;;;;;;;11.90;99.90;;;;;;5052405;28;20386;-80
2023/03/30 01:03:01;;;;;;;;;;;12.00;99.90;;;;;;5052008;28;19982;-80
2023/03/30 01:05:28;;;;;;;;;;;11.90;99.90;;;;;;5035991;28;19962;-80
2023/03/30 01:07:56;;;;;;;;;;;11.80;99.90;;;;;;5053752;28;19927;-81
2023/03/30 01:10:22;;;;;;;;;;;11.80;99.90;;;;;;5051647;28;20403;-80
2023/03/30 01:12:48;;;;;;;;;;;11.90;99.90;;;;;;5034610;28;19916;-80
2023/03/30 01:15:15;;;;;;;;;;;11.80;99.90;;;;;;5053930;28;20287;-81
2023/03/30 01:17:51;;;;;;;;;;;11.70;99.90;;;;;;5034747;28;19925;-81
2023/03/30 01:20:35;;;;;;;;;;;11.70;99.90;;;;;;5053592;28;19925;-80
2023/03/30 01:23:03;;;;;;;;;;;12.70;99.90;;;;;;5052836;28;20018;-80
2023/03/30 01:25:37;;;;;;;;;;;11.60;99.90;;;;;;5034401;28;20011;-81
2023/03/30 01:28:29;;;;;;;;;;;11.50;99.90;;;;;;5035582;28;19921;-80
2023/03/30 01:31:27;;;;;;;;;;;11.70;99.90;;;;;;5034927;28;20395;-81
2023/03/30 01:33:56;;;;;;;;;;;11.70;99.90;;;;;;4992052;28;19921;-80
2023/03/30 01:36:21;;;;;;;;;;;11.50;99.90;;;;;;5044254;28;19928;-81
2023/03/30 01:38:59;;;;;;;;;;;11.60;99.90;;;;;;5032698;28;19920;-80
2023/03/30 01:41:36;;;;;;;;;;;11.60;99.90;;;;;;5032037;28;20391;-80
2023/03/30 01:44:21;;;;;;;;;;;11.40;99.90;;;;;;5033536;28;19928;-80
2023/03/30 01:46:49;;;;;;;;;;;11.40;99.90;;;;;;5052653;28;19921;-81
2023/03/30 01:49:35;;;;;;;;;;;11.40;99.90;;;;;;5052881;28;19921;-81
2023/03/30 01:52:19;;;;;;;;;;;11.30;99.90;;;;;;5011568;28;19920;-81
2023/03/30 01:54:56;;;;;;;;;;;11.20;99.90;;;;;;5052700;28;19920;-81
2023/03/30 01:57:32;;;;;;;;;;;11.10;99.90;;;;;;5052391;28;20364;-81
2023/03/30 02:00:13;;;;;;;;;;;11.20;99.90;;;;;;5030583;28;20418;-80
2023/03/30 02:02:47;;;;;;;;;;;10.90;99.90;;;;;;5051480;28;20292;-80
2023/03/30 02:05:16;;;;;;;;;;;11.00;99.90;;;;;;5051841;28;19920;-81
2023/03/30 02:07:44;;;;;;;;;;;11.00;99.90;;;;;;5033342;28;19972;-80
2023/03/30 02:10:12;;;;;;;;;;;11.10;99.90;;;;;;5052769;28;19921;-80
2023/03/30 02:12:37;;;;;;;;;;;11.10;99.90;;;;;;5052441;28;19925;-79
2023/03/30 02:15:06;;;;;;;;;;;11.00;99.90;;;;;;5052285;28;19920;-79
2023/03/30 02:17:32;;;;;;;;;;;11.10;99.90;;;;;;5052906;28;20004;-79
2023/03/30 02:19:58;;;;;;;;;;;11.10;99.90;;;;;;5051600;28;19946;-78
2023/03/30 02:22:25;;;;;;;;;;;11.10;99.90;;;;;;5034387;28;19917;-79
2023/03/30 02:24:53;;;;;;;;;;;11.20;99.90;;;;;;5052479;28;19924;-79
2023/03/30 02:27:18;;;;;;;;;;;11.20;99.90;;;;;;5034038;28;19921;-79
2023/03/30 02:29:44;;;;;;;;;;;11.10;99.90;;;;;;5035007;28;20348;-79
2023/03/30 02:32:21;;;;;;;;;;;11.20;99.90;;;;;;5052742;28;19924;-79
2023/03/30 02:35:07;;;;;;;;;;;11.10;99.90;;;;;;5048730;28;19921;-79
2023/03/30 02:37:45;;;;;;;;;;;11.00;99.90;;;;;;5031170;28;19928;-78
2023/03/30 02:40:26;;;;;;;;;;;11.10;99.90;;;;;;5030940;28;19974;-78
2023/03/30 02:42:54;;;;;;;;;;;11.00;99.90;;;;;;5032299;28;19921;-77
2023/03/30 02:45:23;;;;;;;;;;;11.20;99.90;;;;;;5033508;28;19925;-78
2023/03/30 02:48:07;;;;;;;;;;;11.20;99.90;;;;;;5052618;28;20268;-78
2023/03/30 02:50:35;;;;;;;;;;;11.20;99.90;;;;;;5055761;28;19920;-78
2023/03/30 02:53:22;;;;;;;;;;;11.10;99.90;;;;;;5056381;28;20008;-79
2023/03/30 02:56:02;;;;;;;;;;;11.10;99.90;;;;;;5017352;28;19924;-79
2023/03/30 02:58:48;;;;;;;;;;;11.00;99.90;;;;;;5018590;28;19921;-78
2023/03/30 03:01:34;;;;;;;;;;;10.90;99.90;;;;;;5035972;28;19953;-79
2023/03/30 03:04:02;;;;;;;;;;;11.00;99.90;;;;;;5024541;28;20288;-79
2023/03/30 03:06:28;;;;;;;;;;;10.80;99.90;;;;;;5055743;28;19921;-79
2023/03/30 03:08:54;;;;;;;;;;;10.80;99.90;;;;;;5037817;28;20383;-79
2023/03/30 03:11:20;;;;;;;;;;;10.70;99.90;;;;;;5036732;28;19927;-79
2023/03/30 03:13:46;;;;;;;;;;;10.70;99.90;;;;;;5054603;28;19921;-79
2023/03/30 03:16:12;;;;;;;;;;;10.60;99.90;;;;;;5054903;28;19921;-79
2023/03/30 03:18:41;;;;;;;;;;;10.50;99.90;;;;;;5037455;28;19925;-78
2023/03/30 03:21:07;;;;;;;;;;;10.50;99.90;;;;;;5055527;28;19925;-79
2023/03/30 03:23:34;;;;;;;;;;;10.40;99.90;;;;;;5053488;28;19920;-79
2023/03/30 03:26:00;;;;;;;;;;;10.40;99.90;;;;;;5032249;28;19928;-79
2023/03/30 03:28:26;;;;;;;;;;;10.40;99.90;;;;;;5034388;28;19921;-79
2023/03/30 03:30:52;;;;;;;;;;;10.30;99.90;;;;;;5034805;28;19921;-79
2023/03/30 03:33:19;;;;;;;;;;;10.40;99.90;;;;;;5035684;28;19944;-78
2023/03/30 03:35:45;;;;;;;;;;;10.20;99.90;;;;;;5034015;28;20416;-79
2023/03/30 03:38:14;;;;;;;;;;;10.20;99.90;;;;;;5042928;28;20008;-79
2023/03/30 03:40:40;;;;;;;;;;;10.30;99.90;;;;;;5054933;28;20350;-79
2023/03/30 03:43:05;;;;;;;;;;;10.30;99.90;;;;;;5036736;28;19921;-79
2023/03/30 03:45:31;;;;;;;;;;;10.30;99.90;;;;;;5036236;28;19920;-78
2023/03/30 03:47:57;;;;;;;;;;;10.20;99.90;;;;;;5054487;28;19924;-78
2023/03/30 03:50:22;;;;;;;;;;;10.40;99.90;;;;;;5036957;28;19929;-78
2023/03/30 03:52:48;;;;;;;;;;;10.40;99.90;;;;;;5054286;28;19921;-79
2023/03/30 03:55:13;;;;;;;;;;;10.30;99.90;;;;;;5036806;28;20111;-79
2023/03/30 03:57:39;;;;;;;;;;;10.50;99.90;;;;;;5054133;28;19924;-79
2023/03/30 04:00:17;;;;;;;;;;;10.40;99.90;;;;;;5053047;28;19921;-79
2023/03/30 04:02:43;;;;;;;;;;;10.50;99.90;;;;;;5054941;28;20011;-79
2023/03/30 04:05:08;;;;;;;;;;;10.60;99.90;;;;;;5036890;28;20007;-79
2023/03/30 04:07:35;;;;;;;;;;;10.50;99.90;;;;;;5052264;28;20433;-79
2023/03/30 04:10:02;;;;;;;;;;;10.50;99.90;;;;;;5053266;28;19966;-80
2023/03/30 04:12:30;;;;;;;;;;;10.50;99.90;;;;;;5035697;28;19928;-79
2023/03/30 04:14:56;;;;;;;;;;;10.60;99.90;;;;;;5037002;28;20011;-79
2023/03/30 04:17:22;;;;;;;;;;;10.70;99.90;;;;;;5036608;28;19927;-79
2023/03/30 04:19:52;;;;;;;;;;;10.70;99.90;;;;;;5038738;28;19983;-79
2023/03/30 04:22:18;;;;;;;;;;;10.70;99.90;;;;;;5034105;28;19960;-79
2023/03/30 04:24:47;;;;;;;;;;;10.80;99.90;;;;;;5033583;28;20380;-80
2023/03/30 04:27:15;;;;;;;;;;;10.80;99.90;;;;;;5034093;28;19925;-79
2023/03/30 04:29:43;;;;;;;;;;;10.90;99.90;;;;;;5035965;28;19979;-79
2023/03/30 04:32:11;;;;;;;;;;;10.90;99.90;;;;;;5038931;28;19980;-79
2023/03/30 04:34:37;;;;;;;;;;;10.80;99.90;;;;;;5036272;28;19921;-79
2023/03/30 04:37:03;;;;;;;;;;;10.80;99.90;;;;;;5037458;28;20436;-78
2023/03/30 04:39:29;;;;;;;;;;;10.90;99.90;;;;;;5029771;28;19957;-79
2023/03/30 04:41:54;;;;;;;;;;;10.80;99.90;;;;;;5034731;28;20391;-79
2023/03/30 04:44:20;;;;;;;;;;;10.90;99.90;;;;;;5033807;28;20430;-80
2023/03/30 04:46:48;;;;;;;;;;;10.90;99.90;;;;;;5033995;28;20007;-79
2023/03/30 04:49:14;;;;;;;;;;;10.80;99.90;;;;;;5041441;28;20043;-79
2023/03/30 04:51:41;;;;;;;;;;;10.80;99.90;;;;;;5044637;28;19963;-73
2023/03/30 04:54:07;;;;;;;;;;;11.00;99.90;;;;;;5036376;28;19921;-73
2023/03/30 04:56:32;;;;;;;;;;;11.00;99.90;;;;;;5034749;28;20380;-73
2023/03/30 04:58:58;;;;;;;;;;;11.00;99.90;;;;;;5036088;28;19921;-78
2023/03/30 05:01:23;;;;;;;;;;;11.10;99.90;;;;;;5052420;28;20003;-77
2023/03/30 05:03:49;;;;;;;;;;;11.10;99.90;;;;;;5052864;28;19921;-73
2023/03/30 05:06:14;;;;;;;;;;;11.00;99.90;;;;;;5035556;28;19921;-69
2023/03/30 05:08:40;;;;;;;;;;;11.00;99.90;;;;;;5033520;28;19935;-70
2023/03/30 05:11:05;;;;;;;;;;;10.90;99.90;;;;;;5053292;28;19927;-75
2023/03/30 05:13:34;;;;;;;;;;;11.00;99.90;;;;;;5048419;28;19920;-77
2023/03/30 05:16:00;;;;;;;;;;;11.00;99.90;;;;;;5041850;28;19931;-76
2023/03/30 05:18:35;;;;;;;;;;;10.90;99.90;;;;;;5034687;28;19999;-77
2023/03/30 05:21:00;;;;;;;;;;;10.90;99.90;;;;;;5045831;28;20344;-73
2023/03/30 05:23:26;;;;;;;;;;;10.90;99.90;;;;;;5033944;28;20420;-71
2023/03/30 05:25:52;;;;;;;;;;;10.90;99.90;;;;;;5035296;28;20482;-71
2023/03/30 05:28:17;;;;;;;;;;;10.90;99.90;;;;;;5021299;28;19921;-71
2023/03/30 05:30:43;;;;;;;;;;;10.90;99.90;;;;;;5022716;28;19970;-72
2023/03/30 05:33:08;;;;;;;;;;;10.80;99.90;;;;;;5032539;28;20379;-71
2023/03/30 05:35:37;;;;;;;;;;;10.80;99.90;;;;;;5050304;28;19920;-72
2023/03/30 05:38:03;;;;;;;;;;;10.90;99.90;;;;;;5049377;28;19921;-72
2023/03/30 05:40:29;;;;;;;;;;;10.80;99.90;;;;;;5043924;28;20387;-72
2023/03/30 05:42:55;;;;;;;;;;;10.80;99.90;;;;;;5034782;28;20337;-72
2023/03/30 05:45:20;;;;;;;;;;;10.80;99.90;;;;;;5014549;28;20024;-72
2023/03/30 05:47:46;;;;;;;;;;;10.90;99.90;;;;;;5014926;28;19921;-72
2023/03/30 05:50:12;;;;;;;;;;;10.80;99.90;;;;;;5021726;28;19921;-70
2023/03/30 05:52:37;;;;;;;;;;;10.80;99.90;;;;;;5033036;28;19959;-72
2023/03/30 05:55:03;;;;;;;;;;;10.90;99.90;;;;;;5052944;28;19924;-72
2023/03/30 05:57:28;;;;;;;;;;;10.90;99.90;;;;;;5030832;28;19943;-72
2023/03/30 05:59:54;;;;;;;;;;;10.90;99.90;;;;;;5047063;28;19951;-72
2023/03/30 06:02:19;;;;;;;;;;;11.10;99.90;;;;;;5036895;28;19929;-71
2023/03/30 06:04:45;;;;;;;;;;;11.10;99.90;;;;;;5024039;28;20269;-73
2023/03/30 06:07:11;;;;;;;;;;;11.10;99.90;;;;;;5018696;28;19975;-73
2023/03/30 06:09:37;;;;;;;;;;;11.10;99.90;;;;;;5014527;28;19927;-73
2023/03/30 06:12:05;;;;;;;;;;;11.10;99.90;;;;;;5013959;28;19921;-72
2023/03/30 06:14:31;;;;;;;;;;;11.10;99.90;;;;;;5034631;28;19921;-74
2023/03/30 06:16:56;;;;;;;;;;;11.10;99.90;;;;;;5022534;28;20019;-76
2023/03/30 06:19:22;;;;;;;;;;;11.00;99.90;;;;;;5013770;28;19921;-77
2023/03/30 06:21:47;;;;;;;;;;;11.20;99.90;;;;;;5014723;28;19929;-74
2023/03/30 06:24:13;;;;;;;;;;;11.20;99.90;;;;;;5034196;28;19943;-73
2023/03/30 06:26:40;;;;;;;;;;;11.10;99.90;;;;;;5037835;28;19921;-79
2023/03/30 06:29:05;;;;;;;;;;;11.00;99.90;;;;;;5039026;28;20382;-79
2023/03/30 06:31:32;;;;;;;;;;;11.10;99.90;;;;;;5038364;28;19927;-80
2023/03/30 06:33:58;;;;;;;;;;;11.10;99.90;;;;;;5039931;28;20402;-73
2023/03/30 06:36:24;;;;;;;;;;;11.10;99.90;;;;;;5040180;28;19924;-75
2023/03/30 06:38:52;;;;;;;;;;;11.10;99.90;;;;;;5034991;28;19921;-75
2023/03/30 06:41:21;;;;;;;;;;;11.20;99.90;;;;;;5034413;28;20280;-75
2023/03/30 06:43:46;;;;;;;;;;;11.20;99.90;;;;;;5051144;28;20257;-75
2023/03/30 06:46:13;;;;;;;;;;;11.10;99.90;;;;;;5035263;28;19928;-75
2023/03/30 06:48:39;;;;;;;;;;;11.10;99.90;;;;;;5033160;28;19920;-75
2023/03/30 06:51:05;;;;;;;;;;;11.20;99.90;;;;;;5018864;28;19921;-75
2023/03/30 06:53:31;;;;;;;;;;;11.20;99.90;;;;;;5020841;28;19920;-75
2023/03/30 06:55:57;;;;;;;;;;;11.20;99.90;;;;;;5036074;28;19921;-75
2023/03/30 06:58:23;;;;;;;;;;;11.20;99.90;;;;;;5035721;28;19921;-74
2023/03/30 07:00:49;;;;;;;;;;;11.20;99.90;;;;;;5018164;28;19921;-75
2023/03/30 07:03:17;;;;;;;;;;;11.40;99.90;;;;;;5020652;28;20330;-74
2023/03/30 07:05:46;;;;;;;;;;;11.30;99.90;;;;;;5035842;28;19928;-75
2023/03/30 07:08:14;;;;;;;;;;;11.40;99.90;;;;;;5034721;28;19971;-75
2023/03/30 07:10:41;;;;;;;;;;;11.40;99.90;;;;;;5033549;28;19928;-75
2023/03/30 07:13:07;;;;;;;;;;;11.40;99.90;;;;;;5037413;28;19946;-75
2023/03/30 07:15:33;;;;;;;;;;;11.50;99.90;;;;;;5037195;28;19921;-74
2023/03/30 07:17:58;;;;;;;;;;;11.40;99.90;;;;;;5038021;28;19928;-74
2023/03/30 07:20:24;;;;;;;;;;;11.50;99.90;;;;;;5055392;28;19927;-74
2023/03/30 07:22:50;;;;;;;;;;;11.40;99.90;;;;;;5037446;28;20027;-75
2023/03/30 07:25:16;;;;;;;;;;;11.50;99.90;;;;;;5055578;28;20365;-74
2023/03/30 07:27:41;;;;;;;;;;;11.50;99.90;;;;;;5055193;28;19925;-75
2023/03/30 07:30:08;;;;;;;;;;;11.50;99.90;;;;;;5053698;28;19925;-75
2023/03/30 07:32:33;;;;;;;;;;;11.40;99.90;;;;;;5054856;28;19920;-74
2023/03/30 07:34:59;;;;;;;;;;;11.50;99.90;;;;;;5037541;28;19975;-74
2023/03/30 07:37:25;;;;;;;;;;;11.40;99.90;;;;;;5054569;28;19947;-74
2023/03/30 07:39:50;;;;;;;;;;;11.70;99.90;;;;;;5037778;28;20361;-73
2023/03/30 07:42:16;;;;;;;;;;;11.50;99.90;;;;;;5055510;28;19928;-73
2023/03/30 07:44:41;;;;;;;;;;;11.40;99.90;;;;;;5053691;28;19921;-74
2023/03/30 07:47:07;;;;;;;;;;;11.40;99.90;;;;;;5036142;28;19921;-74
2023/03/30 07:49:33;;;;;;;;;;;11.30;99.90;;;;;;5033226;28;20375;-73
2023/03/30 07:51:58;;;;;;;;;;;11.40;99.90;;;;;;5034284;28;19928;-73
2023/03/30 07:54:24;;;;;;;;;;;11.20;99.90;;;;;;5036741;28;20047;-74
2023/03/30 07:56:51;;;;;;;;;;;11.20;99.90;;;;;;5037012;28;19925;-73
2023/03/30 07:59:18;;;;;;;;;;;11.10;99.90;;;;;;5053368;28;19920;-73
2023/03/30 08:01:44;;;;;;;;;;;10.50;99.90;;;;;;5037338;28;19984;-73
2023/03/30 08:04:10;;;;;;;;;;;11.20;99.90;;;;;;5055160;28;20007;-73
2023/03/30 08:06:38;;;;;;;;;;;11.20;99.90;;;;;;5035992;28;19925;-73
2023/03/30 08:09:04;;;;;;;;;;;11.20;99.90;;;;;;5052417;28;19975;-74
2023/03/30 08:11:30;;;;;;;;;;;11.20;99.90;;;;;;5036511;28;19924;-80
2023/03/30 08:13:56;;;;;;;;;;;11.20;99.90;;;;;;5055168;28;19921;-76
2023/03/30 08:16:22;;;;;;;;;;;11.30;99.90;;;;;;5054726;28;19927;-75
2023/03/30 08:18:53;;;;;;;;;;;11.30;99.90;;;;;;5036496;28;19921;-73
2023/03/30 08:21:24;;;;;;;;;;;11.40;99.90;;;;;;5059215;28;19979;-73
2023/03/30 08:23:50;;;;;;;;;;;11.40;99.90;;;;;;5064193;28;19927;-73
2023/03/30 08:26:15;;;;;;;;;;;11.50;99.90;;;;;;5062448;28;19920;-73
2023/03/30 08:28:41;;;;;;;;;;;11.50;99.90;;;;;;5062472;28;19928;-74
2023/03/30 08:31:07;;;;;;;;;;;11.80;99.90;;;;;;5046619;28;20004;-73
2023/03/30 08:33:33;;;;;;;;;;;11.70;99.90;;;;;;5027572;28;19961;-73
2023/03/30 08:35:59;;;;;;;;;;;11.70;99.90;;;;;;5051049;28;19960;-73
2023/03/30 08:38:25;;;;;;;;;;;11.80;99.90;;;;;;5065494;28;19917;-73
2023/03/30 08:40:51;;;;;;;;;;;12.00;99.90;;;;;;5064992;28;19920;-72
2023/03/30 08:43:22;;;;;;;;;;;12.10;99.90;;;;;;5051693;28;19928;-72
2023/03/30 08:45:49;;;;;;;;;;;12.30;99.90;;;;;;5048447;28;19920;-73
2023/03/30 08:48:18;;;;;;;;;;;12.80;99.90;;;;;;5035134;28;19944;-73
2023/03/30 08:50:46;;;;;;;;;;;13.30;99.90;;;;;;5054805;28;19956;-74
2023/03/30 08:53:12;;;;;;;;;;;13.90;99.90;;;;;;5030869;28;19925;-74
2023/03/30 08:55:38;;;;;;;;;;;14.50;99.90;;;;;;5029787;28;20435;-73
2023/03/30 08:58:07;;;;;;;;;;;14.50;99.90;;;;;;5017257;28;19921;-73
2023/03/30 09:00:44;;;;;;;;;;;14.10;99.90;;;;;;5033745;28;19968;-81
2023/03/30 09:03:09;;;;;;;;;;;13.90;99.90;;;;;;5046538;28;20327;-72
2023/03/30 09:05:37;;;;;;;;;;;13.60;99.90;;;;;;5037339;28;19921;-72
2023/03/30 09:08:12;;;;;;;;;;;13.40;99.90;;;;;;5040604;28;19954;-72
2023/03/30 09:10:42;;;;;;;;;;;13.30;99.90;;;;;;5047075;28;20020;-72
2023/03/30 09:13:10;;;;;;;;;;;13.10;99.90;;;;;;5039951;28;19921;-71
2023/03/30 09:15:43;;;;;;;;;;;13.10;99.90;;;;;;5038806;28;19917;-71
2023/03/30 09:18:21;;;;;;;;;;;13.00;99.90;;;;;;5041603;28;19931;-73
2023/03/30 09:20:50;;;;;;;;;;;13.00;99.90;;;;;;5057968;28;19917;-72
2023/03/30 09:23:16;;;;;;;;;;;12.90;99.90;;;;;;5021202;28;19928;-73
2023/03/30 09:25:49;;;;;;;;;;;12.60;99.90;;;;;;5039120;28;19932;-72
2023/03/30 09:28:34;;;;;;;;;;;12.50;99.90;;;;;;5044116;28;20463;-73
2023/03/30 09:31:07;;;;;;;;;;;12.20;99.90;;;;;;5039811;28;19978;-73
2023/03/30 09:33:38;;;;;;;;;;;12.20;99.90;;;;;;5032803;28;19921;-73
2023/03/30 09:36:10;;;;;;;;;;;12.10;99.90;;;;;;5031717;28;19924;-73
2023/03/30 09:38:37;;;;;;;;;;;12.10;99.90;;;;;;5051390;28;20027;-73
2023/03/30 09:41:06;;;;;;;;;;;12.20;99.90;;;;;;5050796;28;19920;-73
2023/03/30 09:43:39;;;;;;;;;;;12.10;99.90;;;;;;5027390;28;20356;-73
2023/03/30 09:46:06;;;;;;;;;;;12.10;99.90;;;;;;5033192;28;19920;-73
2023/03/30 09:48:45;;;;;;;;;;;12.30;99.90;;;;;;5014469;28;19928;-73
2023/03/30 09:51:18;;;;;;;;;;;12.20;99.90;;;;;;5013677;28;19925;-72
2023/03/30 09:53:49;;;;;;;;;;;12.20;99.90;;;;;;5021275;28;19924;-73
2023/03/30 09:56:21;;;;;;;;;;;12.20;99.90;;;;;;5032545;28;20014;-73
2023/03/30 09:58:47;;;;;;;;;;;12.10;99.90;;;;;;5017510;28;19932;-73
2023/03/30 10:01:15;;;;;;;;;;;12.20;99.90;;;;;;5018409;28;20016;-73
2023/03/30 10:03:45;;;;;;;;;;;12.30;99.90;;;;;;5035655;28;19924;-72
2023/03/30 10:06:14;;;;;;;;;;;12.30;99.90;;;;;;5053850;28;19986;-72
2023/03/30 10:08:50;;;;;;;;;;;12.40;99.90;;;;;;5032864;28;19928;-72
2023/03/30 10:11:23;;;;;;;;;;;12.40;99.90;;;;;;5035086;28;19917;-72
2023/03/30 10:13:50;;;;;;;;;;;12.40;99.90;;;;;;5039826;28;20567;-72
2023/03/30 10:16:25;;;;;;;;;;;12.40;99.90;;;;;;5035745;28;19917;-75
2023/03/30 10:19:13;;;;;;;;;;;12.30;99.90;;;;;;5035676;28;20019;-74
2023/03/30 10:21:45;;;;;;;;;;;12.20;99.90;;;;;;5034636;28;19927;-75
2023/03/30 10:24:14;;;;;;;;;;;12.20;99.90;;;;;;5018827;28;20315;-74
2023/03/30 10:26:43;;;;;;;;;;;12.30;99.90;;;;;;5055743;28;19924;-72
2023/03/30 10:29:11;;;;;;;;;;;12.40;99.90;;;;;;5056697;28;20323;-71
2023/03/30 10:31:41;;;;;;;;;;;12.40;99.90;;;;;;5056129;28;20368;-72
2023/03/30 10:34:14;;;;;;;;;;;12.30;99.90;;;;;;5055044;28;19921;-74
2023/03/30 10:36:39;;;;;;;;;;;12.30;99.90;;;;;;5056173;28;19974;-73
2023/03/30 10:39:24;;;;;;;;;;;12.40;99.90;;;;;;5051130;28;19979;-75
2023/03/30 10:41:50;;;;;;;;;;;13.00;99.90;;;;;;5054068;28;20368;-74
2023/03/30 10:44:16;;;;;;;;;;;13.60;99.90;;;;;;5045252;28;19921;-76
2023/03/30 10:46:41;;;;;;;;;;;13.60;99.90;;;;;;5031348;28;19927;-80
2023/03/30 10:49:25;;;;;;;;;;;13.40;99.90;;;;;;5029987;28;20284;-74
2023/03/30 10:51:57;;;;;;;;;;;13.40;99.90;;;;;;5018157;28;20355;-74
2023/03/30 10:54:30;;;;;;;;;;;13.40;99.90;;;;;;5035054;28;19921;-73
2023/03/30 10:56:59;;;;;;;;;;;13.40;99.90;;;;;;5035140;28;19928;-76
2023/03/30 10:59:37;;;;;;;;;;;13.50;99.90;;;;;;5017296;28;20273;-74
2023/03/30 11:02:22;;;;;;;;;;;13.40;99.90;;;;;;5034355;28;19947;-73
2023/03/30 11:04:51;;;;;;;;;;;13.40;99.90;;;;;;5034813;28;20007;-72
2023/03/30 11:07:30;;;;;;;;;;;13.50;99.90;;;;;;5034633;28;19921;-72
2023/03/30 11:09:59;;;;;;;;;;;13.50;99.90;;;;;;5046003;28;19921;-72
2023/03/30 11:12:29;;;;;;;;;;;13.70;99.90;;;;;;5037236;28;19936;-72
2023/03/30 11:14:56;;;;;;;;;;;13.70;99.90;;;;;;5054037;28;19921;-71
2023/03/30 11:17:24;;;;;;;;;;;13.70;99.90;;;;;;5053804;28;19920;-72
2023/03/30 11:19:57;;;;;;;;;;;13.80;99.90;;;;;;5027295;28;20399;-72
2023/03/30 11:22:41;;;;;;;;;;;13.80;99.90;;;;;;5037227;28;19982;-72
2023/03/30 11:25:22;;;;;;;;;;;13.80;99.90;;;;;;5048646;28;20398;-74
2023/03/30 11:27:56;;;;;;;;;;;13.90;99.90;;;;;;5024675;28;19928;-73
2023/03/30 11:30:27;;;;;;;;;;;13.90;99.90;;;;;;5023094;28;20024;-73
2023/03/30 11:32:57;;;;;;;;;;;14.00;99.90;;;;;;5034921;28;19924;-72
2023/03/30 11:35:25;;;;;;;;;;;14.50;99.90;;;;;;5042978;28;19928;-72
2023/03/30 11:37:57;;;;;;;;;;;14.80;99.90;;;;;;5041329;28;19979;-72
2023/03/30 11:40:26;;;;;;;;;;;15.10;99.90;;;;;;5038617;28;19921;-72
2023/03/30 11:42:52;;;;;;;;;;;15.10;99.90;;;;;;5048383;28;19921;-74
2023/03/30 11:45:38;;;;;;;;;;;14.90;99.90;;;;;;5015789;28;19968;-73
2023/03/30 11:48:22;;;;;;;;;;;14.90;99.90;;;;;;5029766;28;19927;-75
2023/03/30 11:51:06;;;;;;;;;;;15.10;99.90;;;;;;5045663;28;19980;-74
2023/03/30 11:53:38;;;;;;;;;;;15.00;99.90;;;;;;5015373;28;19921;-72
2023/03/30 11:56:09;;;;;;;;;;;14.80;99.90;;;;;;5016026;28;19917;-73
2023/03/30 11:58:36;;;;;;;;;;;15.00;99.90;;;;;;5017848;28;20285;-73
2023/03/30 12:01:11;;;;;;;;;;;15.50;99.90;;;;;;5029625;28;19939;-73
2023/03/30 12:03:41;;;;;;;;;;;16.20;99.90;;;;;;5027697;28;20372;-74
2023/03/30 12:06:22;;;;;;;;;;;16.30;99.90;;;;;;5021962;28;19929;-76
2023/03/30 12:08:54;;;;;;;;;;;16.00;99.90;;;;;;5019972;28;19921;-74
2023/03/30 12:11:52;;;;;;;;;;;15.60;99.90;;;;;;5018497;28;19925;-74
2023/03/30 12:14:21;;;;;;;;;;;15.40;99.90;;;;;;5001877;28;19921;-73
2023/03/30 12:16:49;;;;;;;;;;;15.20;99.90;;;;;;5030582;28;19921;-74
2023/03/30 12:19:29;;;;;;;;;;;15.30;99.90;;;;;;5016455;28;20292;-73
2023/03/30 12:22:01;;;;;;;;;;;15.10;99.90;;;;;;5046193;28;19921;-74
2023/03/30 12:24:46;;;;;;;;;;;15.90;99.90;;;;;;5021035;28;19920;-73
2023/03/30 12:27:12;;;;;;;;;;;16.20;99.90;;;;;;5016789;28;20356;-74
2023/03/30 12:29:47;;;;;;;;;;;17.00;99.90;;;;;;5046871;28;19928;-74
2023/03/30 12:32:18;;;;;;;;;;;17.00;99.90;;;;;;5033666;28;20318;-73
2023/03/30 12:34:44;;;;;;;;;;;17.30;99.90;;;;;;5043341;28;19983;-74
2023/03/30 12:37:13;;;;;;;;;;;17.30;99.90;;;;;;5056772;28;19943;-73
2023/03/30 12:39:43;;;;;;;;;;;17.60;99.90;;;;;;5053080;28;19925;-73
2023/03/30 12:42:24;;;;;;;;;;;17.60;99.90;;;;;;5057081;28;19944;-73
2023/03/30 12:45:09;;;;;;;;;;;17.80;99.90;;;;;;5044450;28;19928;-74
2023/03/30 12:47:54;;;;;;;;;;;17.90;99.90;;;;;;5032232;28;19928;-74
2023/03/30 12:50:26;;;;;;;;;;;17.60;99.90;;;;;;5033059;28;19921;-74
2023/03/30 12:53:06;;;;;;;;;;;17.50;99.90;;;;;;5036010;28;20382;-74
2023/03/30 12:55:32;;;;;;;;;;;17.80;99.90;;;;;;5033544;28;19921;-73
2023/03/30 12:58:06;;;;;;;;;;;17.50;99.90;;;;;;5033681;28;19987;-75
2023/03/30 13:00:43;;;;;;;;;;;17.30;99.90;;;;;;5023572;28;19920;-75
2023/03/30 13:03:12;;;;;;;;;;;17.00;99.90;;;;;;5040075;28;19968;-73
2023/03/30 13:05:39;;;;;;;;;;;17.00;99.90;;;;;;5043023;28;19931;-74
2023/03/30 13:08:09;;;;;;;;;;;17.10;99.90;;;;;;5036995;28;19956;-74
2023/03/30 13:10:40;;;;;;;;;;;16.80;99.90;;;;;;5038537;28;19928;-73
2023/03/30 13:13:29;;;;;;;;;;;16.40;99.90;;;;;;5041366;28;20365;-74
2023/03/30 13:15:56;;;;;;;;;;;16.30;99.90;;;;;;4999369;28;19921;-74
2023/03/30 13:18:32;;;;;;;;;;;16.20;99.90;;;;;;5051563;28;19972;-74
2023/03/30 13:21:02;;;;;;;;;;;16.00;99.90;;;;;;5051379;28;19929;-75
2023/03/30 13:23:36;;;;;;;;;;;15.90;99.90;;;;;;5052707;28;20015;-74
2023/03/30 13:26:24;;;;;;;;;;;15.70;99.90;;;;;;5046772;28;19925;-74
2023/03/30 13:28:53;;;;;;;;;;;15.70;99.90;;;;;;5032352;28;19975;-74
2023/03/30 13:31:19;;;;;;;;;;;15.40;99.90;;;;;;5014139;28;19956;-74
2023/03/30 13:33:47;;;;;;;;;;;15.30;99.90;;;;;;5032602;28;19932;-74
2023/03/30 13:36:14;;;;;;;;;;;15.50;99.90;;;;;;5020203;28;20288;-74
2023/03/30 13:38:41;;;;;;;;;;;15.40;99.90;;;;;;5034658;28;20412;-75
2023/03/30 13:41:06;;;;;;;;;;;15.20;99.90;;;;;;5046719;28;20059;-74
2023/03/30 13:43:43;;;;;;;;;;;15.20;99.90;;;;;;5033246;28;20007;-74
2023/03/30 13:46:12;;;;;;;;;;;15.20;99.90;;;;;;5046651;28;20375;-78
2023/03/30 13:48:56;;;;;;;;;;;15.30;99.90;;;;;;5052446;28;19925;-76
2023/03/30 13:51:26;;;;;;;;;;;15.20;99.90;;;;;;5033218;28;19963;-78
2023/03/30 13:54:00;;;;;;;;;;;15.20;99.90;;;;;;5052170;28;19982;-74
2023/03/30 13:56:29;;;;;;;;;;;15.30;99.90;;;;;;5033266;28;20410;-74
2023/03/30 13:59:10;;;;;;;;;;;15.30;99.90;;;;;;5023921;28;19917;-74
2023/03/30 14:01:36;;;;;;;;;;;15.10;99.90;;;;;;5024975;28;19955;-75
2023/03/30 14:04:03;;;;;;;;;;;15.10;99.90;;;;;;5036985;28;19916;-75
2023/03/30 14:06:30;;;;;;;;;;;15.20;99.90;;;;;;5051061;28;19943;-74
2023/03/30 14:09:05;;;;;;;;;;;15.20;99.90;;;;;;5052392;28;19975;-75
2023/03/30 14:11:36;;;;;;;;;;;15.10;99.90;;;;;;5045596;28;19924;-75
2023/03/30 14:14:02;;;;;;;;;;;15.00;99.90;;;;;;5037270;28;20020;-74
2023/03/30 14:16:35;;;;;;;;;;;14.90;99.90;;;;;;5025060;28;19928;-74
2023/03/30 14:19:07;;;;;;;;;;;14.70;99.90;;;;;;5017277;28;20011;-75
2023/03/30 14:21:37;;;;;;;;;;;14.50;99.90;;;;;;5027545;28;19928;-80
2023/03/30 14:24:06;;;;;;;;;;;14.40;99.90;;;;;;5020436;28;19921;-74
2023/03/30 14:26:38;;;;;;;;;;;14.30;99.90;;;;;;5039695;28;20289;-74
2023/03/30 14:29:06;;;;;;;;;;;14.10;99.90;;;;;;5035556;28;20308;-74
2023/03/30 14:31:39;;;;;;;;;;;14.10;99.90;;;;;;5036166;28;19921;-74